Time;durP1;ratioP1;P1;durP2;ratioP2;P2;SDS_P1;SDS_P2;PMS_P1;PMS_P2;Temp;Humidity;BMP_temperature;BMP_pressure;BME280_temperature;BME280_humidity;BME280_pressure;Samples;Min_cycle;Max_cycle;Signal;HPM_P1;HPM_P2
2023/09/27 00:00:25;;;;;;;11.17;10.07;;;14.90;99.90;;;;;;4995093;28;20173;-70
2023/09/27 00:02:52;;;;;;;16.43;10.73;;;14.90;99.90;;;;;;4978541;28;20220;-69
2023/09/27 00:05:20;;;;;;;10.53;8.80;;;14.90;99.90;;;;;;4978416;28;20847;-68
2023/09/27 00:07:49;;;;;;;10.23;9.33;;;14.90;99.90;;;;;;4978572;28;20443;-68
2023/09/27 00:10:16;;;;;;;11.50;10.40;;;14.90;99.90;;;;;;4995210;28;20897;-68
2023/09/27 00:13:02;;;;;;;9.50;8.60;;;14.90;99.90;;;;;;4977698;28;20443;-68
2023/09/27 00:15:31;;;;;;;10.83;9.17;;;14.90;99.90;;;;;;4995777;28;20916;-68
2023/09/27 00:18:12;;;;;;;10.60;9.50;;;14.90;99.90;;;;;;4995765;28;20760;-68
2023/09/27 00:21:00;;;;;;;11.93;9.73;;;14.90;99.90;;;;;;4994189;28;20746;-68
2023/09/27 00:23:26;;;;;;;11.63;10.57;;;14.90;99.90;;;;;;4995589;28;20875;-68
2023/09/27 00:25:51;;;;;;;12.07;10.87;;;14.90;99.90;;;;;;4978150;28;20420;-69
2023/09/27 00:28:21;;;;;;;10.60;9.60;;;14.90;99.90;;;;;;4978356;28;20260;-70
2023/09/27 00:30:49;;;;;;;11.00;10.00;;;14.90;99.90;;;;;;4976321;28;20956;-68
2023/09/27 00:33:15;;;;;;;13.00;9.50;;;14.90;99.90;;;;;;4995393;28;20468;-68
2023/09/27 00:35:41;;;;;;;10.30;9.13;;;14.90;99.90;;;;;;4978071;28;20829;-69
2023/09/27 00:38:07;;;;;;;15.97;10.97;;;14.90;99.90;;;;;;4978104;28;20420;-69
2023/09/27 00:40:45;;;;;;;10.83;8.80;;;14.90;99.90;;;;;;4976920;28;20285;-68
2023/09/27 00:43:27;;;;;;;12.07;10.90;;;14.80;99.90;;;;;;4995231;28;20673;-67
2023/09/27 00:46:02;;;;;;;11.20;10.20;;;14.80;99.90;;;;;;4977944;28;20944;-68
2023/09/27 00:48:34;;;;;;;9.90;8.90;;;14.80;99.90;;;;;;4979103;28;20451;-74
2023/09/27 00:51:14;;;;;;;10.13;9.23;;;14.80;99.90;;;;;;4993545;28;20479;-70
2023/09/27 00:53:42;;;;;;;11.57;10.43;;;14.80;99.90;;;;;;4977885;28;20414;-69
2023/09/27 00:56:09;;;;;;;12.37;9.73;;;14.80;99.90;;;;;;4935362;28;1753065;-68
2023/09/27 00:58:38;;;;;;;11.37;10.27;;;14.80;99.90;;;;;;4996356;28;20192;-68
2023/09/27 01:01:04;;;;;;;10.47;9.43;;;14.80;99.90;;;;;;4995279;28;20584;-69
2023/09/27 01:03:32;;;;;;;10.93;9.97;;;14.80;99.90;;;;;;4996039;28;20825;-69
2023/09/27 01:06:06;;;;;;;11.90;10.10;;;14.80;99.90;;;;;;4996401;28;20467;-68
2023/09/27 01:08:32;;;;;;;11.63;10.53;;;14.70;99.90;;;;;;4995434;28;20412;-69
2023/09/27 01:10:59;;;;;;;10.47;9.47;;;14.70;99.90;;;;;;4961742;28;20424;-69
2023/09/27 01:13:27;;;;;;;13.23;11.00;;;14.70;99.90;;;;;;4962615;28;20228;-68
2023/09/27 01:15:53;;;;;;;11.30;10.20;;;14.60;99.90;;;;;;4995885;28;20419;-68
2023/09/27 01:18:19;;;;;;;11.07;10.00;;;14.60;99.90;;;;;;4995996;28;20784;-68
2023/09/27 01:20:45;;;;;;;11.10;10.20;;;14.50;99.90;;;;;;4994982;28;20246;-68
2023/09/27 01:23:10;;;;;;;11.90;10.80;;;14.50;99.90;;;;;;4978326;28;20204;-69
2023/09/27 01:25:38;;;;;;;11.83;10.67;;;14.50;99.90;;;;;;4995638;28;20467;-69
2023/09/27 01:28:10;;;;;;;10.83;9.77;;;14.50;99.90;;;;;;4978246;28;20660;-68
2023/09/27 01:30:37;;;;;;;11.17;10.17;;;14.40;99.90;;;;;;4994802;28;20459;-68
2023/09/27 01:33:05;;;;;;;10.30;9.40;;;14.40;99.90;;;;;;4995674;28;20412;-67
2023/09/27 01:35:35;;;;;;;10.70;9.80;;;14.40;99.90;;;;;;4995665;28;20404;-67
2023/09/27 01:38:03;;;;;;;11.27;10.27;;;14.30;99.90;;;;;;4995569;28;20419;-69
2023/09/27 01:40:31;;;;;;;11.50;10.40;;;14.30;99.90;;;;;;4977395;28;20420;-68
2023/09/27 01:43:01;;;;;;;11.83;10.73;;;14.30;99.90;;;;;;4994776;28;20519;-68
2023/09/27 01:45:31;;;;;;;11.73;10.70;;;14.30;99.90;;;;;;4977746;28;20507;-69
2023/09/27 01:47:57;;;;;;;12.40;9.50;;;14.30;99.90;;;;;;4995296;28;20447;-70
2023/09/27 01:50:24;;;;;;;11.50;10.30;;;14.30;99.90;;;;;;4994506;28;20412;-67
2023/09/27 01:52:54;;;;;;;12.50;11.23;;;14.30;99.90;;;;;;4995146;28;20462;-69
2023/09/27 01:55:20;;;;;;;11.53;10.40;;;14.20;99.90;;;;;;4995208;28;20436;-69
2023/09/27 01:57:46;;;;;;;16.30;11.10;;;14.20;99.90;;;;;;4995177;28;20408;-71
2023/09/27 02:00:14;;;;;;;13.00;11.70;;;14.20;99.90;;;;;;4976095;28;20436;-68
2023/09/27 02:02:57;;;;;;;11.13;10.03;;;14.20;99.90;;;;;;4994348;28;20506;-69
2023/09/27 02:05:25;;;;;;;12.10;10.87;;;14.20;99.90;;;;;;4995055;28;20412;-67
2023/09/27 02:07:51;;;;;;;11.27;10.10;;;14.10;99.90;;;;;;4995024;28;20408;-70
2023/09/27 02:10:17;;;;;;;12.73;11.53;;;14.10;99.90;;;;;;4993985;28;20396;-68
2023/09/27 02:12:43;;;;;;;11.60;10.50;;;14.00;99.90;;;;;;4994882;28;20200;-68
2023/09/27 02:15:11;;;;;;;11.93;10.80;;;14.00;99.90;;;;;;4994669;28;20926;-69
2023/09/27 02:17:39;;;;;;;13.17;11.77;;;14.00;99.90;;;;;;4994169;28;20416;-69
2023/09/27 02:20:07;;;;;;;12.10;10.83;;;14.00;99.90;;;;;;4993895;28;20882;-68
2023/09/27 02:22:37;;;;;;;13.47;11.93;;;13.90;99.90;;;;;;4977068;28;21332;-68
2023/09/27 02:25:05;;;;;;;13.87;12.43;;;13.90;99.90;;;;;;4994705;28;20371;-69
2023/09/27 02:27:31;;;;;;;13.40;12.00;;;13.90;99.90;;;;;;4994829;28;20736;-69
2023/09/27 02:29:57;;;;;;;12.30;11.10;;;13.90;99.90;;;;;;4993853;28;20416;-68
2023/09/27 02:32:23;;;;;;;12.50;11.30;;;13.80;99.90;;;;;;4994411;28;20440;-71
2023/09/27 02:34:51;;;;;;;16.37;11.23;;;13.80;99.90;;;;;;4994665;28;20391;-68
2023/09/27 02:37:17;;;;;;;12.93;11.80;;;13.80;99.90;;;;;;4993677;28;20897;-69
2023/09/27 02:39:43;;;;;;;14.77;12.83;;;13.80;99.90;;;;;;4993482;28;20415;-67
2023/09/27 02:42:12;;;;;;;13.53;12.30;;;13.80;99.90;;;;;;4994202;28;20215;-69
2023/09/27 02:44:38;;;;;;;13.77;12.43;;;13.80;99.90;;;;;;4994328;28;20400;-69
2023/09/27 02:47:04;;;;;;;14.43;12.90;;;13.80;99.90;;;;;;4976845;28;20423;-68
2023/09/27 02:49:29;;;;;;;15.40;13.83;;;13.70;99.90;;;;;;4994030;28;20408;-68
2023/09/27 02:51:55;;;;;;;13.27;11.93;;;13.70;99.90;;;;;;4993556;28;20188;-68
2023/09/27 02:54:21;;;;;;;13.23;11.87;;;13.70;99.90;;;;;;4993782;28;20652;-68
2023/09/27 02:56:47;;;;;;;13.57;12.27;;;13.70;99.90;;;;;;4993178;28;20291;-69
2023/09/27 02:59:14;;;;;;;12.83;11.57;;;13.70;99.90;;;;;;4994138;28;20495;-68
2023/09/27 03:01:41;;;;;;;13.60;12.20;;;13.70;99.90;;;;;;4993008;28;20428;-67
2023/09/27 03:04:08;;;;;;;19.17;13.20;;;13.70;99.90;;;;;;4976655;28;20416;-69
2023/09/27 03:06:37;;;;;;;14.13;12.73;;;13.70;99.90;;;;;;4993830;28;20400;-68
2023/09/27 03:09:08;;;;;;;15.40;13.80;;;13.70;99.90;;;;;;4994014;28;20423;-69
2023/09/27 03:11:35;;;;;;;13.97;12.60;;;13.70;99.90;;;;;;4992254;28;20932;-68
2023/09/27 03:14:01;;;;;;;13.80;12.50;;;13.70;99.90;;;;;;4993929;28;20416;-69
2023/09/27 03:16:27;;;;;;;14.00;12.67;;;13.60;99.90;;;;;;4976696;28;20404;-70
2023/09/27 03:18:54;;;;;;;14.50;13.00;;;13.60;99.90;;;;;;4993684;28;20420;-67
2023/09/27 03:21:20;;;;;;;17.83;14.10;;;13.60;99.90;;;;;;4975503;28;20502;-67
2023/09/27 03:23:47;;;;;;;15.33;13.70;;;13.70;99.90;;;;;;4976331;28;20455;-68
2023/09/27 03:26:12;;;;;;;14.93;13.53;;;13.70;99.90;;;;;;4994060;28;20396;-68
2023/09/27 03:28:38;;;;;;;18.80;13.80;;;13.70;99.90;;;;;;4993149;28;20979;-69
2023/09/27 03:31:07;;;;;;;16.10;14.03;;;13.70;99.90;;;;;;4992861;28;20239;-67
2023/09/27 03:33:33;;;;;;;15.50;13.80;;;13.60;99.90;;;;;;4993503;28;20169;-70
2023/09/27 03:36:03;;;;;;;15.03;13.43;;;13.60;99.90;;;;;;4976373;28;20754;-68
2023/09/27 03:38:29;;;;;;;14.67;13.17;;;13.60;99.90;;;;;;4993717;28;20269;-68
2023/09/27 03:40:55;;;;;;;14.60;13.07;;;13.60;99.90;;;;;;4992712;28;20538;-69
2023/09/27 03:43:20;;;;;;;15.13;13.10;;;13.60;99.90;;;;;;4976199;28;20204;-68
2023/09/27 03:45:46;;;;;;;15.20;13.57;;;13.60;99.90;;;;;;4993010;28;20522;-68
2023/09/27 03:48:12;;;;;;;15.17;12.77;;;13.60;99.90;;;;;;4993635;28;20533;-68
2023/09/27 03:50:37;;;;;;;16.60;13.20;;;13.60;99.90;;;;;;4992700;28;20638;-69
2023/09/27 03:53:04;;;;;;;16.17;14.47;;;13.60;99.90;;;;;;4993519;28;20177;-69
2023/09/27 03:55:30;;;;;;;16.57;14.87;;;13.50;99.90;;;;;;4993396;28;20189;-69
2023/09/27 03:57:56;;;;;;;19.63;14.47;;;13.50;99.90;;;;;;4993652;28;20419;-67
2023/09/27 04:00:22;;;;;;;17.43;14.47;;;13.50;99.90;;;;;;4992681;28;20177;-69
2023/09/27 04:02:47;;;;;;;16.87;15.17;;;13.50;99.90;;;;;;4992586;28;20201;-69
2023/09/27 04:05:14;;;;;;;16.03;14.37;;;13.50;99.90;;;;;;4993407;28;20179;-68
2023/09/27 04:07:41;;;;;;;16.70;14.90;;;13.50;99.90;;;;;;4993484;28;20411;-69
2023/09/27 04:10:08;;;;;;;16.57;14.67;;;13.50;99.90;;;;;;4992678;28;20382;-69
2023/09/27 04:12:36;;;;;;;15.07;13.47;;;13.50;99.90;;;;;;4993263;28;20431;-67
2023/09/27 04:15:06;;;;;;;16.00;14.30;;;13.50;99.90;;;;;;4993407;28;20404;-68
2023/09/27 04:17:32;;;;;;;18.10;14.23;;;13.50;99.90;;;;;;4993142;28;20400;-68
2023/09/27 04:19:58;;;;;;;15.17;13.80;;;13.50;99.90;;;;;;4992431;28;20503;-68
2023/09/27 04:22:24;;;;;;;14.77;13.30;;;13.50;99.90;;;;;;4992636;28;20547;-68
2023/09/27 04:24:50;;;;;;;19.20;15.23;;;13.50;99.90;;;;;;4975972;28;20204;-69
2023/09/27 04:27:16;;;;;;;15.30;13.83;;;13.50;99.90;;;;;;4978574;28;20826;-69
2023/09/27 04:29:42;;;;;;;15.93;14.30;;;13.50;99.90;;;;;;4996064;28;20173;-69
2023/09/27 04:32:07;;;;;;;15.00;13.47;;;13.50;99.90;;;;;;4996854;28;20234;-68
2023/09/27 04:34:33;;;;;;;17.53;15.77;;;13.50;99.90;;;;;;4997042;28;20184;-67
2023/09/27 04:36:59;;;;;;;16.10;14.43;;;13.50;99.90;;;;;;4996950;28;20686;-68
2023/09/27 04:39:27;;;;;;;18.40;16.00;;;13.50;99.90;;;;;;4996347;28;20677;-68
2023/09/27 04:41:53;;;;;;;22.97;17.40;;;13.50;99.90;;;;;;4977755;28;20197;-68
2023/09/27 04:44:19;;;;;;;16.83;14.87;;;13.50;99.90;;;;;;4996559;28;20395;-68
2023/09/27 04:46:45;;;;;;;19.37;15.00;;;13.50;99.90;;;;;;4979340;28;20383;-67
2023/09/27 04:49:10;;;;;;;17.93;16.07;;;13.50;99.90;;;;;;4996423;28;20575;-70
2023/09/27 04:51:36;;;;;;;20.33;16.93;;;13.50;99.90;;;;;;4995544;28;20199;-68
2023/09/27 04:54:03;;;;;;;22.60;15.97;;;13.50;99.90;;;;;;4996564;28;20180;-66
2023/09/27 04:56:30;;;;;;;17.97;15.90;;;13.50;99.90;;;;;;4996308;28;20192;-68
2023/09/27 04:59:01;;;;;;;20.60;17.57;;;13.50;99.90;;;;;;4996135;28;20870;-68
2023/09/27 05:01:27;;;;;;;24.17;18.47;;;13.50;99.90;;;;;;4995058;28;20429;-68
2023/09/27 05:03:53;;;;;;;19.93;17.27;;;13.50;99.90;;;;;;4995607;28;20459;-67
2023/09/27 05:06:19;;;;;;;22.57;17.70;;;13.50;99.90;;;;;;4996250;28;20383;-67
2023/09/27 05:08:45;;;;;;;22.97;18.03;;;13.40;99.90;;;;;;4978716;28;20169;-68
2023/09/27 05:11:11;;;;;;;22.67;17.63;;;13.40;99.90;;;;;;4995268;28;20479;-68
2023/09/27 05:13:36;;;;;;;20.97;17.47;;;13.40;99.90;;;;;;4978507;28;20200;-68
2023/09/27 05:16:03;;;;;;;31.10;18.20;;;13.40;99.90;;;;;;4995835;28;20181;-67
2023/09/27 05:18:28;;;;;;;23.40;18.87;;;13.40;99.90;;;;;;4977980;28;20527;-68
2023/09/27 05:20:54;;;;;;;27.07;20.40;;;13.50;99.90;;;;;;4995204;28;20435;-68
2023/09/27 05:23:20;;;;;;;28.30;21.90;;;13.50;99.90;;;;;;4995425;28;20204;-68
2023/09/27 05:25:47;;;;;;;26.13;20.40;;;13.50;99.90;;;;;;4995547;28;20252;-67
2023/09/27 05:28:13;;;;;;;26.67;20.90;;;13.60;99.90;;;;;;4995803;28;20169;-67
2023/09/27 05:30:38;;;;;;;24.07;19.13;;;13.60;99.90;;;;;;4994902;28;20825;-68
2023/09/27 05:33:04;;;;;;;23.37;19.77;;;13.60;99.90;;;;;;4995909;28;20196;-68
2023/09/27 05:35:30;;;;;;;20.03;17.90;;;13.70;99.90;;;;;;4995548;28;20535;-69
2023/09/27 05:37:58;;;;;;;24.23;18.80;;;13.80;99.90;;;;;;4976818;28;20183;-69
2023/09/27 05:40:24;;;;;;;21.13;18.70;;;13.80;99.90;;;;;;4994577;28;20419;-69
2023/09/27 05:42:50;;;;;;;23.50;18.57;;;13.80;99.90;;;;;;4995329;28;20448;-69
2023/09/27 05:45:16;;;;;;;20.50;18.40;;;13.90;99.90;;;;;;4995574;28;20165;-69
2023/09/27 05:47:42;;;;;;;19.70;17.53;;;13.90;99.90;;;;;;4995461;28;20387;-68
2023/09/27 05:50:09;;;;;;;20.37;18.13;;;14.00;99.90;;;;;;4994388;28;20421;-69
2023/09/27 05:52:35;;;;;;;21.73;17.03;;;14.00;99.90;;;;;;4995229;28;20420;-68
2023/09/27 05:55:05;;;;;;;22.07;18.77;;;14.00;99.90;;;;;;4995181;28;20929;-68
2023/09/27 05:57:32;;;;;;;19.13;17.10;;;14.00;99.90;;;;;;4994329;28;20408;-67
2023/09/27 05:59:58;;;;;;;19.00;17.10;;;14.00;99.90;;;;;;4993951;28;20415;-68
2023/09/27 06:02:30;;;;;;;28.57;17.40;;;13.90;99.90;;;;;;4977751;28;20511;-67
2023/09/27 06:04:57;;;;;;;20.60;18.40;;;13.90;99.90;;;;;;4995339;28;20396;-67
2023/09/27 06:07:25;;;;;;;17.77;15.97;;;14.00;99.90;;;;;;4995096;28;20749;-67
2023/09/27 06:09:51;;;;;;;19.37;17.47;;;14.00;99.90;;;;;;4994321;28;20761;-69
2023/09/27 06:12:17;;;;;;;25.00;20.17;;;14.00;99.90;;;;;;4994598;28;20428;-73
2023/09/27 06:14:43;;;;;;;21.30;18.30;;;14.10;99.90;;;;;;4977323;28;20183;-68
2023/09/27 06:17:10;;;;;;;19.27;16.70;;;14.10;99.90;;;;;;4994866;28;20901;-68
2023/09/27 06:19:37;;;;;;;20.60;16.97;;;14.20;99.90;;;;;;4976996;28;20408;-68
2023/09/27 06:22:06;;;;;;;20.90;18.10;;;14.30;99.90;;;;;;4994755;28;20523;-68
2023/09/27 06:24:53;;;;;;;21.13;17.60;;;14.40;99.90;;;;;;4994942;28;20412;-67
2023/09/27 06:27:19;;;;;;;20.13;17.93;;;14.40;99.90;;;;;;4976447;28;20503;-68
2023/09/27 06:29:45;;;;;;;19.90;17.07;;;14.40;99.90;;;;;;4960579;28;20416;-68
2023/09/27 06:32:11;;;;;;;20.80;18.57;;;14.50;99.90;;;;;;4976417;28;20986;-69
2023/09/27 06:34:36;;;;;;;20.80;18.23;;;14.50;99.90;;;;;;4977061;28;20447;-68
2023/09/27 06:37:02;;;;;;;18.33;16.30;;;14.60;99.90;;;;;;4977189;28;20477;-67
2023/09/27 06:39:28;;;;;;;20.47;18.27;;;14.70;99.90;;;;;;4994617;28;20172;-68
2023/09/27 06:41:55;;;;;;;20.40;18.30;;;14.70;99.90;;;;;;4993999;28;20263;-67
2023/09/27 06:44:20;;;;;;;22.90;17.83;;;14.80;99.90;;;;;;4994550;28;20415;-69
2023/09/27 06:46:48;;;;;;;20.63;18.30;;;14.80;99.90;;;;;;4994685;28;20412;-67
2023/09/27 06:49:14;;;;;;;19.77;17.53;;;14.90;99.90;;;;;;4976648;28;20538;-69
2023/09/27 06:51:40;;;;;;;19.83;17.70;;;14.90;99.90;;;;;;4993488;28;20429;-67
2023/09/27 06:54:05;;;;;;;19.07;17.07;;;15.00;99.90;;;;;;4977126;28;20224;-67
2023/09/27 06:56:31;;;;;;;20.30;16.23;;;15.00;99.90;;;;;;4994172;28;20251;-69
2023/09/27 06:58:57;;;;;;;20.40;17.47;;;15.10;99.90;;;;;;4994580;28;20932;-68
2023/09/27 07:01:24;;;;;;;22.77;16.90;;;15.20;99.90;;;;;;4993607;28;20196;-68
2023/09/27 07:03:50;;;;;;;21.00;17.10;;;15.30;99.90;;;;;;4994101;28;20209;-72
2023/09/27 07:06:16;;;;;;;20.80;16.67;;;15.30;99.90;;;;;;4986246;28;20435;-74
2023/09/27 07:08:44;;;;;;;18.17;16.27;;;15.40;99.90;;;;;;4992998;28;20466;-67
2023/09/27 07:11:10;;;;;;;17.40;15.73;;;15.50;99.90;;;;;;4991959;28;20956;-67
2023/09/27 07:13:37;;;;;;;17.80;15.90;;;15.50;99.90;;;;;;4994072;28;20960;-68
2023/09/27 07:16:26;;;;;;;17.00;15.30;;;15.60;99.90;;;;;;4989914;28;20559;-68
2023/09/27 07:18:59;;;;;;;19.00;15.83;;;15.70;99.90;;;;;;4989304;28;20439;-69
2023/09/27 07:21:25;;;;;;;16.87;15.10;;;15.70;99.90;;;;;;4987789;28;20462;-67
2023/09/27 07:23:52;;;;;;;16.40;14.00;;;15.80;99.90;;;;;;4991441;28;20533;-68
2023/09/27 07:26:19;;;;;;;17.90;16.03;;;15.80;99.90;;;;;;4956499;28;20479;-72
2023/09/27 07:28:45;;;;;;;17.70;15.10;;;15.90;99.90;;;;;;4988058;28;20424;-70
2023/09/27 07:31:17;;;;;;;16.47;14.87;;;16.00;99.90;;;;;;4970871;28;20471;-67
2023/09/27 07:33:52;;;;;;;16.00;14.30;;;16.10;99.90;;;;;;4987665;28;20852;-68
2023/09/27 07:36:20;;;;;;;21.93;14.90;;;16.20;99.90;;;;;;4975503;28;20438;-68
2023/09/27 07:38:47;;;;;;;16.93;15.10;;;16.30;99.90;;;;;;4991808;28;20424;-67
2023/09/27 07:41:15;;;;;;;17.47;15.63;;;16.40;99.90;;;;;;4990684;28;20534;-70
2023/09/27 07:43:42;;;;;;;16.20;14.60;;;16.50;99.90;;;;;;4991882;28;20455;-68
2023/09/27 07:46:12;;;;;;;14.27;12.97;;;16.60;99.90;;;;;;4958200;28;20961;-68
2023/09/27 07:48:41;;;;;;;17.10;13.87;;;16.70;99.90;;;;;;4992276;28;20420;-69
2023/09/27 07:51:19;;;;;;;14.17;12.67;;;16.80;99.90;;;;;;4974993;28;20793;-68
2023/09/27 07:53:46;;;;;;;15.03;13.47;;;16.90;99.90;;;;;;4974588;28;20443;-68
2023/09/27 07:56:36;;;;;;;15.83;14.20;;;17.00;99.90;;;;;;4976302;28;20447;-67
2023/09/27 07:59:03;;;;;;;13.83;12.57;;;17.10;99.90;;;;;;4976401;28;20451;-69
2023/09/27 08:01:29;;;;;;;16.27;13.83;;;17.20;99.90;;;;;;4960142;28;20460;-67
2023/09/27 08:04:06;;;;;;;14.07;12.63;;;17.30;99.90;;;;;;4976870;28;20471;-68
2023/09/27 08:06:33;;;;;;;14.83;13.33;;;17.40;99.90;;;;;;4964606;28;20674;-70
2023/09/27 08:09:01;;;;;;;15.50;13.90;;;17.50;99.90;;;;;;4976018;28;20436;-68
2023/09/27 08:11:28;;;;;;;15.30;13.50;;;17.70;99.90;;;;;;4958015;28;20459;-68
2023/09/27 08:13:54;;;;;;;15.60;12.83;;;17.80;99.90;;;;;;4959394;28;20445;-68
2023/09/27 08:16:21;;;;;;;14.27;12.87;;;17.80;99.90;;;;;;4961726;28;20447;-70
2023/09/27 08:18:46;;;;;;;17.03;14.37;;;18.00;99.90;;;;;;4962554;28;20440;-67
2023/09/27 08:21:13;;;;;;;15.50;13.90;;;18.10;99.90;;;;;;4959663;28;21439;-70
2023/09/27 08:23:41;;;;;;;17.70;12.97;;;18.20;99.90;;;;;;4979050;28;20900;-68
2023/09/27 08:26:12;;;;;;;16.03;13.00;;;18.40;95.10;;;;;;4963320;28;20178;-68
2023/09/27 08:28:39;;;;;;;19.13;14.87;;;18.40;91.50;;;;;;4961729;28;20957;-67
2023/09/27 08:31:05;;;;;;;16.07;14.40;;;18.60;78.80;;;;;;4958382;28;20466;-68
2023/09/27 08:33:34;;;;;;;14.23;12.73;;;18.70;68.70;;;;;;4992432;28;21381;-68
2023/09/27 08:36:00;;;;;;;13.57;12.20;;;18.80;62.30;;;;;;4994497;28;20177;-68
2023/09/27 08:38:26;;;;;;;17.50;12.47;;;19.00;63.00;;;;;;4933052;28;20431;-68
2023/09/27 08:40:53;;;;;;;15.00;12.47;;;19.10;38.70;;;;;;4960704;28;20551;-74
2023/09/27 08:43:21;;;;;;;16.60;12.20;;;19.30;13.30;;;;;;4956008;28;20820;-69
2023/09/27 08:45:49;;;;;;;11.57;10.37;;;19.40;1.70;;;;;;4976307;28;20443;-77
2023/09/27 08:48:22;;;;;;;14.47;11.50;;;19.60;1.00;;;;;;4959352;28;20523;-73
2023/09/27 08:50:51;;;;;;;15.27;11.70;;;19.80;1.00;;;;;;4991608;28;20486;-67
2023/09/27 08:53:17;;;;;;;12.63;10.27;;;19.80;1.00;;;;;;4977171;28;20440;-68
2023/09/27 08:55:48;;;;;;;17.93;12.00;;;20.00;1.00;;;;;;4975640;28;20455;-68
2023/09/27 08:58:16;;;;;;;14.27;12.77;;;20.10;1.00;;;;;;4978703;28;20804;-67
2023/09/27 09:00:42;;;;;;;12.00;10.80;;;20.10;1.00;;;;;;4938143;28;20801;-68
2023/09/27 09:03:12;;;;;;;13.03;9.73;;;20.10;1.00;;;;;;4967109;28;20551;-68
2023/09/27 09:05:39;;;;;;;12.03;9.23;;;20.30;1.00;;;;;;4977543;28;20920;-77
2023/09/27 09:08:07;;;;;;;12.20;10.13;;;20.50;1.00;;;;;;4993959;28;20808;-67
2023/09/27 09:10:33;;;;;;;10.67;9.63;;;20.90;1.00;;;;;;4974669;28;21000;-67
2023/09/27 09:13:04;;;;;;;11.30;10.20;;;21.10;1.00;;;;;;4994092;28;20443;-68
2023/09/27 09:15:40;;;;;;;10.80;9.27;;;21.30;1.00;;;;;;4961488;28;20428;-68
2023/09/27 09:18:32;;;;;;;10.17;9.17;;;21.70;1.00;;;;;;4958459;28;20447;-68
2023/09/27 09:21:08;;;;;;;10.57;9.57;;;22.00;1.00;;;;;;4972266;28;20464;-67
2023/09/27 09:23:36;;;;;;;8.93;8.10;;;22.30;1.00;;;;;;4963739;28;20467;-68
2023/09/27 09:26:09;;;;;;;10.43;9.43;;;22.40;1.00;;;;;;4956846;28;20432;-72
2023/09/27 09:28:55;;;;;;;11.37;10.27;;;22.70;1.00;;;;;;4959659;28;20440;-68
2023/09/27 09:31:22;;;;;;;10.80;9.30;;;23.00;1.00;;;;;;4990170;28;20452;-67
2023/09/27 09:34:08;;;;;;;11.97;10.40;;;23.20;1.00;;;;;;4978939;28;20471;-69
2023/09/27 09:36:39;;;;;;;9.50;8.60;;;23.20;1.00;;;;;;4977348;28;20431;-67
2023/09/27 09:39:14;;;;;;;14.13;9.80;;;23.10;1.00;;;;;;4976074;28;20456;-67
2023/09/27 09:41:47;;;;;;;11.30;9.93;;;23.00;1.00;;;;;;4990622;28;20549;-74
2023/09/27 09:44:19;;;;;;;15.50;9.50;;;23.10;1.00;;;;;;4994571;28;20459;-67
2023/09/27 09:46:45;;;;;;;10.87;9.40;;;23.40;1.00;;;;;;4946076;28;20436;-67
2023/09/27 09:49:14;;;;;;;12.93;10.33;;;23.60;1.00;;;;;;4947111;28;20432;-67
2023/09/27 09:51:43;;;;;;;9.47;8.47;;;23.90;1.00;;;;;;4955607;28;22086;-68
2023/09/27 09:54:09;;;;;;;10.73;9.10;;;24.10;1.00;;;;;;4973862;28;20451;-67
2023/09/27 09:56:39;;;;;;;9.17;8.33;;;24.10;1.00;;;;;;4976307;28;20457;-67
2023/09/27 09:59:11;;;;;;;10.83;7.60;;;23.90;1.00;;;;;;4961494;28;20729;-66
2023/09/27 10:01:39;;;;;;;12.93;8.53;;;23.80;1.00;;;;;;4975860;28;20460;-79
2023/09/27 10:04:05;;;;;;;8.33;7.53;;;23.80;1.00;;;;;;4961544;28;20499;-67
2023/09/27 10:06:33;;;;;;;10.27;7.53;;;23.70;1.00;;;;;;4977380;28;20442;-67
2023/09/27 10:09:05;;;;;;;8.20;7.50;;;23.60;1.00;;;;;;4993214;28;20813;-67
2023/09/27 10:11:32;;;;;;;9.03;8.03;;;23.30;1.00;;;;;;4990734;28;20478;-67
2023/09/27 10:14:00;;;;;;;7.30;6.60;;;23.10;1.00;;;;;;4994206;28;20510;-67
2023/09/27 10:16:27;;;;;;;7.90;7.30;;;23.20;1.00;;;;;;4974875;28;20444;-67
2023/09/27 10:18:54;;;;;;;9.07;8.10;;;23.50;1.00;;;;;;4995054;28;20408;-67
2023/09/27 10:21:21;;;;;;;9.40;7.30;;;23.60;1.00;;;;;;4994068;28;20431;-67
2023/09/27 10:23:52;;;;;;;11.67;7.40;;;23.80;1.00;;;;;;4973423;28;20813;-70
2023/09/27 10:26:40;;;;;;;8.13;7.33;;;23.90;1.00;;;;;;4993216;28;20192;-67
2023/09/27 10:29:16;;;;;;;8.67;6.90;;;24.10;1.00;;;;;;4978619;28;20423;-68
2023/09/27 10:31:57;;;;;;;7.93;5.77;;;23.90;1.00;;;;;;4990949;28;20462;-67
2023/09/27 10:34:46;;;;;;;8.57;5.83;;;23.90;1.00;;;;;;4992535;28;20432;-68
2023/09/27 10:37:11;;;;;;;8.30;5.73;;;24.20;1.00;;;;;;4992912;28;20411;-75
2023/09/27 10:39:38;;;;;;;8.47;5.77;;;24.30;1.00;;;;;;4974245;28;20793;-75
2023/09/27 10:42:04;;;;;;;11.30;5.87;;;24.40;1.00;;;;;;4973242;28;20197;-75
2023/09/27 10:44:36;;;;;;;9.37;5.27;;;24.40;1.00;;;;;;4992383;28;20435;-66
2023/09/27 10:47:04;;;;;;;10.10;4.30;;;24.10;1.00;;;;;;4975931;28;20185;-67
2023/09/27 10:49:38;;;;;;;13.23;9.30;;;23.90;1.00;;;;;;4994114;28;20414;-67
2023/09/27 10:52:20;;;;;;;5.70;5.10;;;23.70;1.00;;;;;;4961306;28;20459;-67
2023/09/27 10:54:46;;;;;;;5.03;4.63;;;23.60;1.00;;;;;;4960188;28;20963;-67
2023/09/27 10:57:14;;;;;;;5.00;4.60;;;23.60;1.00;;;;;;4976298;28;20765;-68
2023/09/27 10:59:43;;;;;;;5.33;4.83;;;23.50;1.00;;;;;;4991523;28;20468;-68
2023/09/27 11:02:09;;;;;;;5.80;5.30;;;23.40;1.00;;;;;;4960421;28;20463;-68
2023/09/27 11:04:38;;;;;;;9.80;6.07;;;23.20;1.00;;;;;;4990474;28;20432;-67
2023/09/27 11:07:03;;;;;;;9.60;5.33;;;23.00;1.00;;;;;;4960753;28;20173;-67
2023/09/27 11:09:29;;;;;;;5.90;5.40;;;23.00;1.00;;;;;;4992927;28;20730;-71
2023/09/27 11:11:57;;;;;;;5.73;5.20;;;23.00;1.00;;;;;;4992874;28;20444;-67
2023/09/27 11:14:34;;;;;;;6.07;5.47;;;23.00;1.00;;;;;;4974673;28;20709;-68
2023/09/27 11:17:25;;;;;;;6.30;5.80;;;23.20;1.00;;;;;;4973477;28;20475;-76
2023/09/27 11:19:52;;;;;;;7.40;6.00;;;23.40;1.00;;;;;;4974553;28;20432;-67
2023/09/27 11:22:28;;;;;;;6.37;4.93;;;23.50;1.00;;;;;;4991989;28;20471;-74
2023/09/27 11:24:55;;;;;;;7.40;6.00;;;23.70;1.00;;;;;;4970367;28;20483;-67
2023/09/27 11:27:21;;;;;;;5.50;5.00;;;23.70;1.00;;;;;;4958568;28;20507;-67
2023/09/27 11:29:52;;;;;;;4.93;4.53;;;23.80;1.00;;;;;;4973760;28;20440;-67
2023/09/27 11:32:23;;;;;;;7.33;6.53;;;23.90;1.00;;;;;;4991328;28;20960;-67
2023/09/27 11:34:59;;;;;;;6.83;5.20;;;24.00;1.00;;;;;;4975587;28;20518;-68
2023/09/27 11:37:26;;;;;;;6.47;4.90;;;24.00;1.00;;;;;;4976970;28;20502;-67
2023/09/27 11:39:55;;;;;;;5.47;4.90;;;24.10;1.00;;;;;;4978025;28;20424;-68
2023/09/27 11:42:21;;;;;;;5.07;4.60;;;24.20;1.00;;;;;;4978568;28;20472;-67
2023/09/27 11:45:07;;;;;;;7.90;6.07;;;24.30;1.00;;;;;;4996523;28;20428;-67
2023/09/27 11:47:48;;;;;;;5.90;5.23;;;24.30;1.00;;;;;;4993992;28;20880;-67
2023/09/27 11:50:15;;;;;;;7.70;5.20;;;24.40;1.00;;;;;;4994396;28;20497;-67
2023/09/27 11:52:46;;;;;;;9.33;7.87;;;24.40;1.00;;;;;;4996064;28;20459;-68
2023/09/27 11:55:16;;;;;;;6.30;4.87;;;24.40;1.00;;;;;;4995899;28;20427;-70
2023/09/27 11:57:42;;;;;;;6.63;4.80;;;24.40;1.00;;;;;;4979274;28;20434;-67
2023/09/27 12:00:10;;;;;;;7.77;6.57;;;24.40;1.00;;;;;;4978186;28;20414;-67
2023/09/27 12:02:36;;;;;;;10.40;5.27;;;24.40;1.00;;;;;;4996714;28;20897;-68
2023/09/27 12:05:05;;;;;;;5.33;4.90;;;24.60;1.00;;;;;;4964228;28;20483;-68
2023/09/27 12:07:32;;;;;;;7.13;5.70;;;24.70;1.00;;;;;;4978126;28;20428;-67
2023/09/27 12:09:58;;;;;;;5.57;5.10;;;24.70;1.00;;;;;;4976996;28;20445;-67
2023/09/27 12:12:23;;;;;;;6.20;5.17;;;24.80;1.00;;;;;;4991472;28;20534;-67
2023/09/27 12:14:49;;;;;;;6.17;4.53;;;24.70;1.00;;;;;;4996701;28;20212;-67
2023/09/27 12:17:18;;;;;;;4.77;4.40;;;24.50;1.00;;;;;;4995311;28;20177;-67
2023/09/27 12:19:45;;;;;;;7.33;4.97;;;24.40;1.00;;;;;;4975322;28;20188;-68
2023/09/27 12:22:12;;;;;;;6.03;4.10;;;24.30;1.00;;;;;;4995120;28;20439;-67
2023/09/27 12:24:38;;;;;;;9.10;4.40;;;24.20;1.00;;;;;;4996248;28;20930;-67
2023/09/27 12:27:07;;;;;;;4.50;4.00;;;24.20;1.00;;;;;;4976845;28;20434;-67
2023/09/27 12:29:33;;;;;;;5.20;4.07;;;24.30;1.00;;;;;;4976973;28;20432;-81
2023/09/27 12:32:00;;;;;;;4.23;3.83;;;24.40;1.00;;;;;;4973803;28;20474;-67
2023/09/27 12:34:26;;;;;;;3.90;3.60;;;24.50;1.00;;;;;;4993810;28;20432;-68
2023/09/27 12:36:51;;;;;;;5.43;4.00;;;24.50;1.00;;;;;;4993771;28;20848;-68
2023/09/27 12:39:17;;;;;;;4.43;4.00;;;24.70;1.00;;;;;;4995890;28;20191;-68
2023/09/27 12:41:43;;;;;;;9.13;3.60;;;25.00;1.00;;;;;;4990316;28;20228;-67